createdAt,value
2017-11-03T00:20:54.019Z,98216.22
2017-11-03T00:23:22.259Z,98217.50
2017-11-03T00:25:51.278Z,98214.95
2017-11-03T00:28:19.517Z,98216.27
2017-11-03T00:30:47.782Z,98220.10
2017-11-03T00:33:16.785Z,98219.73
2017-11-03T00:35:45.038Z,98209.97
2017-11-03T00:38:13.373Z,98210.72
2017-11-03T00:40:41.616Z,98214.53
2017-11-03T00:43:09.862Z,98216.07
2017-11-03T00:45:38.111Z,98208.85
2017-11-03T00:48:06.354Z,98214.41
2017-11-03T00:50:35.363Z,98211.08
2017-11-03T00:53:03.610Z,98208.52
2017-11-03T00:55:31.858Z,98220.41
2017-11-03T00:58:00.109Z,98215.73
2017-11-03T01:00:28.355Z,98220.25
2017-11-03T01:02:57.362Z,98218.89
2017-11-03T01:05:25.613Z,98214.65
2017-11-03T01:07:53.850Z,98220.65
2017-11-03T01:10:22.093Z,98220.38
2017-11-03T01:12:50.342Z,98218.81
2017-11-03T01:15:19.347Z,98215.47
2017-11-03T01:17:47.593Z,98221.78
2017-11-03T01:20:15.837Z,98218.91
2017-11-03T01:22:44.085Z,98217.11
2017-11-03T01:25:12.326Z,98223.89
2017-11-03T01:27:41.332Z,98224.31
2017-11-03T01:30:10.339Z,98223.48
2017-11-03T01:32:38.594Z,98223.03
2017-11-03T01:35:07.606Z,98222.07
2017-11-03T01:37:35.854Z,98220.64
2017-11-03T01:40:04.107Z,98218.87
2017-11-03T01:42:32.350Z,98227.29
2017-11-03T01:45:00.594Z,98226.32
2017-11-03T01:47:29.611Z,98232.05
2017-11-03T01:49:57.850Z,98232.19
2017-11-03T01:52:26.874Z,98232.05
2017-11-03T01:54:55.112Z,98235.74
2017-11-03T01:57:24.128Z,98233.25
2017-11-03T01:59:53.135Z,98228.11
2017-11-03T02:02:21.389Z,98229.80
2017-11-03T02:04:50.389Z,98231.93
2017-11-03T02:07:18.638Z,98235.73
2017-11-03T02:09:46.883Z,98230.59
2017-11-03T02:12:15.141Z,98229.78
2017-11-03T02:14:43.382Z,98227.17
2017-11-03T02:17:12.408Z,98223.45
2017-11-03T02:19:40.638Z,98223.28
2017-11-03T02:22:09.654Z,98226.61
2017-11-03T02:24:37.909Z,98223.78
2017-11-03T02:27:06.141Z,98220.34
2017-11-03T02:29:34.378Z,98222.10
2017-11-03T02:32:02.626Z,98224.50
2017-11-03T02:34:30.872Z,98219.08
2017-11-03T02:36:59.120Z,98222.23
2017-11-03T02:39:27.357Z,98225.99
2017-11-03T02:41:56.376Z,98217.59
2017-11-03T02:44:24.609Z,98219.55
2017-11-03T02:46:52.861Z,98226.78
2017-11-03T02:49:21.106Z,98219.84
2017-11-03T02:51:49.363Z,98223.38
2017-11-03T02:54:18.364Z,98221.04
2017-11-03T02:56:47.374Z,98220.84
2017-11-03T02:59:15.613Z,98218.66
2017-11-03T03:01:44.635Z,98224.13
2017-11-03T03:04:12.886Z,98220.12
2017-11-03T03:06:41.894Z,98217.87
2017-11-03T03:09:10.133Z,98216.52
2017-11-03T03:11:38.382Z,98219.48
2017-11-03T03:14:06.627Z,98221.88
2017-11-03T03:16:34.862Z,98225.25
2017-11-03T03:19:03.112Z,98225.69
2017-11-03T03:21:31.362Z,98232.52
2017-11-03T03:23:59.601Z,98233.79
2017-11-03T03:26:28.619Z,98239.59
2017-11-03T03:28:56.853Z,98233.13
2017-11-03T03:31:25.108Z,98233.56
2017-11-03T03:33:53.350Z,98238.25
2017-11-03T03:36:21.591Z,98230.98
2017-11-03T03:38:49.830Z,98232.25
2017-11-03T03:41:18.075Z,98241.44
2017-11-03T03:43:46.322Z,98238.73
2017-11-03T03:46:14.555Z,98244.04
2017-11-03T03:48:42.801Z,98241.59
2017-11-03T03:51:11.060Z,98246.46
2017-11-03T03:53:40.067Z,98247.73
2017-11-03T03:56:08.306Z,98252.27
2017-11-03T03:58:36.549Z,98249.43
2017-11-03T04:01:04.795Z,98255.37
2017-11-03T04:03:33.039Z,98257.21
2017-11-03T04:06:02.051Z,98257.64
2017-11-03T04:08:30.303Z,98256.00
2017-11-03T04:10:58.538Z,98258.56
2017-11-03T04:13:26.791Z,98253.67
2017-11-03T04:15:55.039Z,98257.58
2017-11-03T04:18:24.058Z,98255.95
2017-11-03T04:20:52.328Z,98253.34
2017-11-03T04:23:20.573Z,98258.11
2017-11-03T04:25:49.586Z,98256.88
2017-11-03T04:28:17.835Z,98257.63
2017-11-03T04:30:46.078Z,98252.55
2017-11-03T04:33:14.330Z,98258.14
2017-11-03T04:35:42.574Z,98259.67
2017-11-03T04:38:11.601Z,98252.11
2017-11-03T04:40:39.834Z,98256.75
2017-11-03T04:43:08.851Z,98256.52
2017-11-03T04:45:37.087Z,98254.66
2017-11-03T04:48:05.334Z,98260.36
2017-11-03T04:50:33.578Z,98251.22
2017-11-03T04:53:01.833Z,98255.50
2017-11-03T04:55:30.838Z,98250.44
2017-11-03T04:57:59.866Z,98248.53
2017-11-03T05:00:28.098Z,98250.08
2017-11-03T05:02:57.118Z,98245.23
2017-11-03T05:05:25.367Z,98246.80
2017-11-03T05:07:54.375Z,98253.80
2017-11-03T05:10:22.623Z,98250.05
2017-11-03T05:12:50.868Z,98251.17
2017-11-03T05:15:19.108Z,98252.58
2017-11-03T05:17:47.368Z,98252.36
2017-11-03T05:20:16.372Z,98255.61
2017-11-03T05:22:44.621Z,98254.93
2017-11-03T05:25:13.634Z,98256.27
2017-11-03T05:27:41.885Z,98254.08
2017-11-03T05:30:10.131Z,98261.64
2017-11-03T05:32:38.386Z,98261.85
2017-11-03T05:35:06.634Z,98260.76
2017-11-03T05:37:34.883Z,98258.14
2017-11-03T05:40:03.133Z,98265.03
2017-11-03T05:42:31.391Z,98260.50
2017-11-03T05:44:59.628Z,98266.23
2017-11-03T05:47:28.646Z,98263.23
2017-11-03T05:49:56.887Z,98261.64
2017-11-03T05:52:25.898Z,98267.89
2017-11-03T05:54:54.142Z,98267.30
2017-11-03T05:57:22.390Z,98266.43
2017-11-03T05:59:50.636Z,98264.17
2017-11-03T06:02:18.886Z,98260.88
2017-11-03T06:04:47.893Z,98268.63
2017-11-03T06:07:16.155Z,98265.35
2017-11-03T06:09:45.683Z,98271.19
2017-11-03T06:12:13.935Z,98275.70
2017-11-03T06:14:42.960Z,98283.05
2017-11-03T06:17:11.203Z,98280.66
2017-11-03T06:19:40.221Z,98275.18
2017-11-03T06:22:08.466Z,98278.35
2017-11-03T06:24:37.482Z,98275.54
2017-11-03T06:27:05.726Z,98276.05
2017-11-03T06:29:33.977Z,98279.59
2017-11-03T06:32:02.225Z,98286.43
2017-11-03T06:34:30.477Z,98284.13
2017-11-03T06:36:58.722Z,98293.02
2017-11-03T06:39:27.007Z,98293.45
2017-11-03T06:41:56.016Z,98295.60
2017-11-03T06:44:25.034Z,98298.18
2017-11-03T06:46:53.269Z,98299.38
2017-11-03T06:49:22.395Z,98303.19
2017-11-03T06:51:50.642Z,98308.16
2017-11-03T06:54:18.886Z,98309.73
2017-11-03T06:56:47.126Z,98311.16
2017-11-03T06:59:15.378Z,98310.60
2017-11-03T07:01:44.383Z,98305.59
2017-11-03T07:04:12.634Z,98304.03
2017-11-03T07:06:41.644Z,98311.34
2017-11-03T07:09:10.665Z,98302.92
2017-11-03T07:11:38.903Z,98305.62
2017-11-03T07:14:07.919Z,98306.73
2017-11-03T07:16:36.166Z,98301.91
2017-11-03T07:19:05.187Z,98307.53
2017-11-03T07:21:33.430Z,98309.73
2017-11-03T07:24:01.685Z,98313.69
2017-11-03T07:26:29.939Z,98316.02
2017-11-03T07:28:58.182Z,98318.01
2017-11-03T07:31:26.427Z,98313.11
2017-11-03T07:33:54.685Z,98312.67
2017-11-03T07:36:22.927Z,98324.15
2017-11-03T07:38:51.175Z,98319.17
2017-11-03T07:41:20.185Z,98316.20
2017-11-03T07:43:48.432Z,98320.58
2017-11-03T07:46:17.443Z,98316.40
2017-11-03T07:48:45.718Z,98320.83
2017-11-03T07:51:13.968Z,98317.59
2017-11-03T07:53:42.218Z,98315.78
2017-11-03T07:56:10.466Z,98320.14
2017-11-03T07:58:38.705Z,98324.81
2017-11-03T08:01:07.714Z,98321.29
2017-11-03T08:03:35.970Z,98327.17
2017-11-03T08:06:04.980Z,98326.98
2017-11-03T08:08:33.989Z,98323.47
2017-11-03T08:11:02.229Z,98324.84
2017-11-03T08:13:31.246Z,98321.04
2017-11-03T08:15:59.485Z,98326.88
2017-11-03T08:18:27.737Z,98326.24
2017-11-03T08:20:55.983Z,98319.84
2017-11-03T08:23:24.226Z,98321.67
2017-11-03T08:25:53.234Z,98320.44
2017-11-03T08:28:21.482Z,98326.58
2017-11-03T08:30:49.721Z,98329.23
2017-11-03T08:33:17.971Z,98329.25
2017-11-03T08:35:46.203Z,98332.94
2017-11-03T08:38:14.456Z,98336.53
2017-11-03T08:40:42.699Z,98331.34
2017-11-03T08:43:10.938Z,98331.66
2017-11-03T08:45:39.950Z,98331.30
2017-11-03T08:48:08.964Z,98328.89
2017-11-03T08:50:37.202Z,98337.66
2017-11-03T08:53:06.230Z,98336.45
2017-11-03T08:55:34.467Z,98338.41
2017-11-03T08:58:02.721Z,98330.08
2017-11-03T09:00:30.958Z,98339.13
2017-11-03T09:02:59.204Z,98333.91
2017-11-03T09:05:28.203Z,98338.42
2017-11-03T09:07:57.223Z,98347.59
2017-11-03T09:10:25.453Z,98340.98
2017-11-03T09:12:54.469Z,98343.30
2017-11-03T09:15:22.716Z,98338.77
2017-11-03T09:17:50.957Z,98341.27
2017-11-03T09:20:19.211Z,98344.77
2017-11-03T09:22:47.463Z,98345.14
2017-11-03T09:25:16.478Z,98347.27
2017-11-03T09:27:44.728Z,98349.39
2017-11-03T09:30:13.738Z,98347.03
2017-11-03T09:32:41.990Z,98338.44
2017-11-03T09:35:11.006Z,98336.50
2017-11-03T09:37:39.266Z,98337.84
2017-11-03T09:40:08.278Z,98335.99
2017-11-03T09:42:36.525Z,98331.03
2017-11-03T09:45:05.540Z,98333.23
2017-11-03T09:47:33.790Z,98332.95
2017-11-03T09:50:02.854Z,98333.91
2017-11-03T09:52:31.106Z,98335.52
2017-11-03T09:54:59.353Z,98341.05
2017-11-03T09:57:27.606Z,98340.10
2017-11-03T09:59:55.854Z,98331.98
2017-11-03T10:02:24.102Z,98336.98
2017-11-03T10:04:52.353Z,98334.44
2017-11-03T10:07:21.366Z,98336.84
2017-11-03T10:09:49.617Z,98337.05
2017-11-03T10:12:18.622Z,98343.97
2017-11-03T10:14:46.869Z,98342.06
2017-11-03T10:17:15.109Z,98339.80
2017-11-03T10:19:44.269Z,98338.82
2017-11-03T10:22:13.269Z,98338.76
2017-11-03T10:24:41.519Z,98341.14
2017-11-03T10:27:10.523Z,98340.83
2017-11-03T10:29:39.530Z,98340.72
2017-11-03T10:32:07.773Z,98343.98
2017-11-03T10:34:36.791Z,98342.22
2017-11-03T10:37:05.038Z,98342.50
2017-11-03T10:39:33.282Z,98331.70
2017-11-03T10:42:01.524Z,98335.11
2017-11-03T10:44:29.778Z,98328.75
2017-11-03T10:46:58.787Z,98323.56
2017-11-03T10:49:27.034Z,98320.56
2017-11-03T10:51:56.039Z,98324.22
2017-11-03T10:54:25.051Z,98315.91
2017-11-03T10:56:53.291Z,98319.38
2017-11-03T10:59:21.543Z,98317.17
2017-11-03T11:01:49.783Z,98314.22
2017-11-03T11:04:18.033Z,98312.88
2017-11-03T11:06:47.038Z,98315.84
2017-11-03T11:09:15.286Z,98315.70
2017-11-03T11:11:43.526Z,98315.22
2017-11-03T11:14:11.769Z,98315.55
2017-11-03T11:16:40.018Z,98308.03
2017-11-03T11:19:09.032Z,98306.68
2017-11-03T11:21:37.273Z,98303.52
2017-11-03T11:24:05.522Z,98300.02
2017-11-03T11:26:33.775Z,98301.47
2017-11-03T11:29:02.015Z,98295.45
2017-11-03T11:31:31.034Z,98293.78
2017-11-03T11:33:59.280Z,98286.31
2017-11-03T11:36:28.290Z,98286.36
2017-11-03T11:38:56.541Z,98283.78
2017-11-03T11:41:25.549Z,98277.25
2017-11-03T11:43:54.567Z,98270.30
2017-11-03T11:46:22.811Z,98276.28
2017-11-03T11:48:51.823Z,98276.49
2017-11-03T11:51:20.069Z,98269.95
2017-11-03T11:53:48.310Z,98268.80
2017-11-03T11:56:16.553Z,98268.95
2017-11-03T11:58:44.805Z,98267.36
2017-11-03T12:01:13.823Z,98261.75
2017-11-03T12:03:42.075Z,98258.88
2017-11-03T12:06:11.082Z,98262.52
2017-11-03T12:08:39.356Z,98258.56
2017-11-03T12:11:08.372Z,98258.02
2017-11-03T12:13:36.618Z,98257.86
2017-11-03T12:16:05.633Z,98248.64
2017-11-03T12:18:33.886Z,98256.48
2017-11-03T12:21:02.900Z,98258.14
2017-11-03T12:23:31.149Z,98249.50
2017-11-03T12:26:00.176Z,98253.70
2017-11-03T12:28:28.419Z,98244.84
2017-11-03T12:30:57.448Z,98243.53
2017-11-03T12:33:25.691Z,98245.81
2017-11-03T12:35:54.706Z,98236.33
2017-11-03T12:38:22.950Z,98234.50
2017-11-03T12:40:55.746Z,98235.97
2017-11-03T12:43:24.001Z,98248.66
2017-11-03T12:45:52.263Z,98243.39
2017-11-03T12:48:20.507Z,98234.67
2017-11-03T12:50:48.757Z,98221.12
2017-11-03T12:53:17.002Z,98222.63
2017-11-03T12:55:45.254Z,98219.98
2017-11-03T12:58:13.509Z,98215.53
2017-11-03T13:00:41.768Z,98215.92
2017-11-03T13:03:10.014Z,98210.97
2017-11-03T13:05:39.034Z,98212.07
2017-11-03T13:08:07.288Z,98211.59
2017-11-03T13:10:35.545Z,98205.58
2017-11-03T13:13:03.794Z,98206.34
2017-11-03T13:15:32.055Z,98206.69
2017-11-03T13:18:00.306Z,98211.91
2017-11-03T13:20:28.558Z,98210.63
2017-11-03T13:22:57.570Z,98212.33
2017-11-03T13:25:25.826Z,98206.36
2017-11-03T13:27:54.075Z,98208.52
2017-11-03T13:30:22.327Z,98205.95
2017-11-03T13:32:50.581Z,98209.37
2017-11-03T13:35:18.834Z,98197.72
2017-11-03T13:37:47.849Z,98194.77
2017-11-03T13:40:16.112Z,98191.80
2017-11-03T13:42:44.369Z,98191.93
2017-11-03T13:45:13.390Z,98189.98
2017-11-03T13:47:41.645Z,98185.59
2017-11-03T13:50:10.665Z,98180.55
2017-11-03T13:52:39.031Z,98174.06
2017-11-03T13:55:07.288Z,98175.44
2017-11-03T13:57:36.296Z,98179.45
2017-11-03T14:00:04.557Z,98179.12
2017-11-03T14:02:33.575Z,98178.27
2017-11-03T14:05:01.833Z,98168.88
2017-11-03T14:07:30.861Z,98172.28
2017-11-03T14:09:59.120Z,98164.19
2017-11-03T14:12:27.377Z,98167.97
2017-11-03T14:14:56.402Z,98164.15
2017-11-03T14:17:24.653Z,98157.77
2017-11-03T14:19:52.912Z,98158.61
2017-11-03T14:22:21.925Z,98154.33
2017-11-03T14:24:50.191Z,98150.09
2017-11-03T14:27:19.208Z,98147.11
2017-11-03T14:29:47.465Z,98142.84
2017-11-03T14:32:15.715Z,98147.51
2017-11-03T14:34:43.973Z,98140.69
2017-11-03T14:37:12.223Z,98141.56
2017-11-03T14:39:40.475Z,98141.12
2017-11-03T14:42:08.738Z,98146.20
2017-11-03T14:44:36.996Z,98144.89
2017-11-03T14:47:06.027Z,98140.68
2017-11-03T14:49:34.276Z,98144.93
2017-11-03T14:52:03.298Z,98140.67
2017-11-03T14:54:31.604Z,98134.27
2017-11-03T14:57:04.028Z,98133.83
2017-11-03T15:02:11.461Z,98129.53
2017-11-03T15:04:39.977Z,98129.98
2017-11-03T15:07:08.232Z,98129.09
2017-11-03T15:09:36.494Z,98122.28
2017-11-03T15:12:08.374Z,98122.70
2017-11-03T15:14:36.714Z,98120.16
2017-11-03T15:17:05.058Z,98123.58
2017-11-03T15:19:33.455Z,98121.86
2017-11-03T15:22:02.590Z,98119.28
2017-11-03T15:24:30.944Z,98122.71
2017-11-03T15:26:59.320Z,98121.42
2017-11-03T15:29:27.682Z,98114.55
2017-11-03T15:31:56.759Z,98116.70
2017-11-03T15:34:25.015Z,98108.57
2017-11-03T15:36:53.303Z,98105.16
2017-11-03T15:39:21.570Z,98104.28
2017-11-03T15:41:50.602Z,98107.27
2017-11-03T15:44:20.102Z,98107.67
2017-11-03T15:46:49.127Z,98108.05
2017-11-03T15:49:17.381Z,98102.44
2017-11-03T15:51:45.643Z,98102.34
2017-11-03T15:54:14.659Z,98098.45
2017-11-03T15:56:42.909Z,98102.18
2017-11-03T15:59:11.920Z,98109.34
2017-11-03T16:01:40.166Z,98108.86
2017-11-03T16:04:08.414Z,98106.19
2017-11-03T16:06:36.665Z,98104.84
2017-11-03T16:09:04.933Z,98104.30
2017-11-03T16:11:33.204Z,98101.64
2017-11-03T16:14:01.467Z,98101.98
2017-11-03T16:16:30.498Z,98106.14
2017-11-03T16:18:58.787Z,98111.19
2017-11-03T16:21:27.044Z,98112.42
2017-11-03T16:23:55.294Z,98107.67
2017-11-03T16:26:23.563Z,98110.16
2017-11-03T16:28:52.583Z,98107.14
2017-11-03T16:31:20.847Z,98099.47
2017-11-03T16:33:49.132Z,98098.14
2017-11-03T16:36:17.385Z,98094.66
2017-11-03T16:38:45.645Z,98092.95
2017-11-03T16:41:13.892Z,98104.36
2017-11-03T16:43:42.151Z,98093.38
2017-11-03T16:46:10.408Z,98092.49
2017-11-03T16:48:38.648Z,98095.87
2017-11-03T16:51:07.669Z,98097.95
2017-11-03T16:53:35.936Z,98094.08
2017-11-03T16:56:04.192Z,98102.52
2017-11-03T16:58:33.199Z,98101.67
2017-11-03T17:01:01.453Z,98102.56
2017-11-03T17:03:30.263Z,98103.31
2017-11-03T17:05:58.519Z,98105.84
2017-11-03T17:08:27.540Z,98106.66
2017-11-03T17:11:00.488Z,98104.10
2017-11-03T17:13:28.796Z,98108.83
2017-11-03T17:15:57.197Z,98097.80
2017-11-03T17:18:25.519Z,98104.59
2017-11-03T17:20:53.903Z,98100.81
2017-11-03T17:25:59.067Z,98093.13
2017-11-03T17:28:28.074Z,98088.75
2017-11-03T17:30:56.330Z,98099.25
2017-11-03T17:33:25.350Z,98094.05
2017-11-03T17:35:53.605Z,98092.41
2017-11-03T17:38:22.624Z,98092.78
2017-11-03T17:41:19.717Z,98090.70
2017-11-03T17:43:52.404Z,98086.83
2017-11-03T17:46:20.775Z,98084.61
2017-11-03T17:48:50.110Z,98086.28
2017-11-03T17:51:27.342Z,98082.79
2017-11-03T18:05:25.678Z,98080.48
2017-11-03T18:07:53.960Z,98083.03
2017-11-03T18:10:22.235Z,98080.45
2017-11-03T18:12:50.513Z,98073.28
2017-11-03T18:15:18.823Z,98076.58
2017-11-03T18:17:47.106Z,98072.78
2017-11-03T18:20:15.370Z,98064.97
2017-11-03T18:22:43.632Z,98065.04
2017-11-03T18:25:11.873Z,98069.89
2017-11-03T18:27:40.121Z,98060.81
2017-11-03T18:30:09.054Z,98060.92
2017-11-03T18:32:37.351Z,98049.17
2017-11-03T18:35:05.674Z,98042.89
2017-11-03T18:37:34.756Z,98045.30
2017-11-03T18:40:03.009Z,98041.38
2017-11-03T18:42:31.293Z,98050.59
2017-11-03T18:44:59.589Z,98050.47
2017-11-03T18:47:27.861Z,98041.91
2017-11-03T18:49:56.082Z,98047.44
2017-11-03T18:52:24.327Z,98039.24
2017-11-03T18:54:53.338Z,98039.55
2017-11-03T18:57:21.633Z,98038.51
2017-11-03T18:59:49.909Z,98035.41
2017-11-03T19:02:21.224Z,98034.13
2017-11-03T19:04:49.477Z,98038.28
2017-11-03T19:07:17.746Z,98039.43
2017-11-03T19:09:46.030Z,98038.30
2017-11-03T19:12:14.324Z,98032.99
2017-11-03T19:14:43.326Z,98040.48
2017-11-03T19:17:11.579Z,98045.48
2017-11-03T19:19:40.638Z,98042.53
2017-11-03T19:22:08.885Z,98044.49
2017-11-03T19:24:37.131Z,98049.57
2017-11-03T19:27:06.157Z,98041.52
2017-11-03T19:29:34.399Z,98044.05
2017-11-03T19:32:02.651Z,98040.67
2017-11-03T19:34:31.074Z,98037.73
2017-11-03T19:37:00.096Z,98038.50
2017-11-03T19:39:28.416Z,98037.16
2017-11-03T19:41:56.713Z,98042.22
2017-11-03T19:44:24.953Z,98044.33
2017-11-03T19:46:53.264Z,98042.23
2017-11-03T19:49:22.269Z,98043.97
2017-11-03T19:51:51.401Z,98049.91
2017-11-03T19:54:19.694Z,98046.08
2017-11-03T19:56:47.943Z,98046.52
2017-11-03T19:59:16.237Z,98043.13
2017-11-03T20:01:44.548Z,98037.63
2017-11-03T20:04:12.806Z,98036.78
2017-11-03T20:06:41.112Z,98035.02
2017-11-03T20:09:09.357Z,98039.00
2017-11-03T20:11:37.618Z,98038.50
2017-11-03T20:14:05.950Z,98033.84
2017-11-03T20:16:34.197Z,98030.47
2017-11-03T20:19:02.504Z,98027.52
2017-11-03T20:21:30.798Z,98026.19
2017-11-03T20:23:59.045Z,98025.26
2017-11-03T20:26:27.292Z,98026.02
2017-11-03T20:28:55.554Z,98029.84
2017-11-03T20:31:23.814Z,98033.80
2017-11-03T20:33:52.124Z,98033.64
2017-11-03T20:36:20.366Z,98027.34
2017-11-03T20:38:48.677Z,98025.16
2017-11-03T20:41:16.973Z,98025.92
2017-11-03T20:43:45.219Z,98021.63
2017-11-03T20:46:13.526Z,98023.33
2017-11-03T20:48:41.835Z,98028.31
2017-11-03T20:51:10.893Z,98022.39
2017-11-03T20:53:39.919Z,98022.73
2017-11-03T20:56:08.975Z,98020.97
2017-11-03T20:58:37.214Z,98026.94
2017-11-03T21:01:05.462Z,98030.66
2017-11-03T21:03:33.740Z,98023.41
2017-11-03T21:06:02.750Z,98022.05
2017-11-03T21:08:30.999Z,98030.39
2017-11-03T21:11:00.091Z,98025.26
2017-11-03T21:13:28.339Z,98017.63
2017-11-03T21:15:56.596Z,98014.62
2017-11-03T21:18:24.989Z,98018.53
2017-11-03T21:20:53.345Z,98013.77
2017-11-03T21:23:21.601Z,98017.09
2017-11-03T21:25:49.842Z,98015.73
2017-11-03T21:28:18.971Z,98008.11
2017-11-03T21:30:47.230Z,98008.89
2017-11-03T21:33:15.484Z,98008.94
2017-11-03T21:35:44.500Z,98003.37
2017-11-03T21:38:13.523Z,98009.11
2017-11-03T21:40:41.796Z,97999.39
2017-11-03T21:43:10.122Z,98007.45
2017-11-03T21:45:38.362Z,98005.84
2017-11-03T21:48:06.626Z,98005.02
2017-11-03T21:50:34.886Z,98011.39
2017-11-03T21:53:03.195Z,98006.17
2017-11-03T21:55:31.427Z,98005.56
2017-11-03T21:57:59.747Z,98004.81
2017-11-03T22:00:28.048Z,98004.87
2017-11-03T22:02:56.406Z,98000.08
2017-11-03T22:05:24.649Z,97997.02
2017-11-03T22:07:52.953Z,98001.19
2017-11-03T22:10:21.265Z,97996.87
2017-11-03T22:12:49.548Z,97995.59
2017-11-03T22:15:18.550Z,97996.77
2017-11-03T22:17:46.801Z,97998.70
2017-11-03T22:20:15.048Z,97995.73
2017-11-03T22:22:43.309Z,97997.30
2017-11-03T22:25:11.628Z,97988.14
2017-11-03T22:27:40.662Z,97994.78
2017-11-03T22:30:08.952Z,97991.37
2017-11-03T22:32:37.197Z,97981.77
2017-11-03T22:35:06.211Z,97985.14
2017-11-03T22:37:34.564Z,97988.09
2017-11-03T22:40:03.569Z,97977.50
2017-11-03T22:42:31.896Z,97988.34
2017-11-03T22:45:00.998Z,97980.46
2017-11-03T22:47:29.294Z,97978.88
2017-11-03T22:49:58.353Z,97970.19
2017-11-03T22:52:26.776Z,97971.35
2017-11-03T22:54:55.830Z,97976.22
2017-11-03T22:57:24.105Z,97977.91
2017-11-03T22:59:52.363Z,97980.11
2017-11-03T23:02:20.666Z,97982.41
2017-11-03T23:04:48.908Z,97980.41
2017-11-03T23:07:17.201Z,97977.66
2017-11-03T23:09:45.799Z,97975.53
2017-11-03T23:12:14.086Z,97972.41
2017-11-03T23:14:42.333Z,97967.45
2017-11-03T23:17:10.715Z,97971.52
2017-11-03T23:19:38.982Z,97960.25
2017-11-03T23:22:07.231Z,97959.91
2017-11-03T23:24:35.489Z,97964.96
2017-11-03T23:27:04.495Z,97961.17
2017-11-03T23:29:32.755Z,97957.30
2017-11-03T23:32:01.801Z,97948.56
2017-11-03T23:34:30.182Z,97950.00
2017-11-03T23:36:58.435Z,97949.49
2017-11-03T23:39:26.702Z,97948.30
2017-11-03T23:41:54.950Z,97947.03
2017-11-03T23:44:23.979Z,97944.30
2017-11-03T23:46:52.274Z,97939.69
2017-11-03T23:49:20.602Z,97940.14
2017-11-03T23:51:49.618Z,97945.11
2017-11-03T23:54:17.878Z,97938.02
2017-11-03T23:56:46.138Z,97943.25
2017-11-03T23:59:14.386Z,97939.92
